createdAt,value
2018-10-09T00:01:38.536Z,8.60
2018-10-09T00:04:06.889Z,8.60
2018-10-09T00:06:35.976Z,8.60
2018-10-09T00:09:05.803Z,8.60
2018-10-09T00:11:34.132Z,8.50
2018-10-09T00:14:02.628Z,8.50
2018-10-09T00:16:31.007Z,8.50
2018-10-09T00:18:59.324Z,8.50
2018-10-09T00:21:27.719Z,8.40
2018-10-09T00:23:56.040Z,8.50
2018-10-09T00:26:24.340Z,8.50
2018-10-09T00:28:52.668Z,8.60
2018-10-09T00:31:21.032Z,8.50
2018-10-09T00:33:49.393Z,8.40
2018-10-09T00:36:17.908Z,8.50
2018-10-09T00:38:46.230Z,8.50
2018-10-09T00:41:14.647Z,8.60
2018-10-09T00:43:42.949Z,8.60
2018-10-09T00:46:11.324Z,8.60
2018-10-09T00:48:39.674Z,8.70
2018-10-09T00:51:08.069Z,8.70
2018-10-09T00:53:37.328Z,8.70
2018-10-09T00:56:05.700Z,8.70
2018-10-09T00:58:34.123Z,8.70
2018-10-09T01:01:02.492Z,8.70
2018-10-09T01:03:30.812Z,8.60
2018-10-09T01:05:59.140Z,8.50
2018-10-09T01:08:27.455Z,8.60
2018-10-09T01:10:55.780Z,8.60
2018-10-09T01:13:24.089Z,8.50
2018-10-09T01:15:52.416Z,8.60
2018-10-09T01:18:21.721Z,8.50
2018-10-09T01:20:50.040Z,8.50
2018-10-09T01:23:18.359Z,8.50
2018-10-09T01:25:46.718Z,8.50
2018-10-09T01:28:15.023Z,8.50
2018-10-09T01:30:43.332Z,8.40
2018-10-09T01:33:11.692Z,8.40
2018-10-09T01:35:40.561Z,8.30
2018-10-09T01:38:08.923Z,8.30
2018-10-09T01:40:37.229Z,8.40
2018-10-09T01:43:05.597Z,8.30
2018-10-09T01:45:33.912Z,8.40
2018-10-09T01:48:02.257Z,8.40
2018-10-09T01:50:30.639Z,8.40
2018-10-09T01:52:58.960Z,8.40
2018-10-09T01:55:27.263Z,8.20
2018-10-09T01:57:55.593Z,7.90
2018-10-09T02:00:24.192Z,8.00
2018-10-09T02:02:52.505Z,8.00
2018-10-09T02:05:20.868Z,7.90
2018-10-09T02:07:49.496Z,7.80
2018-10-09T02:10:17.804Z,7.70
2018-10-09T02:12:46.148Z,7.70
2018-10-09T02:15:14.452Z,7.50
2018-10-09T02:17:42.827Z,7.40
2018-10-09T02:20:11.873Z,7.30
2018-10-09T02:22:40.168Z,7.10
2018-10-09T02:25:08.521Z,6.90
2018-10-09T02:27:36.877Z,7.00
2018-10-09T02:30:06.644Z,7.10
2018-10-09T02:32:34.991Z,7.20
2018-10-09T02:35:03.392Z,7.40
2018-10-09T02:37:32.724Z,7.30
2018-10-09T02:40:01.782Z,7.40
2018-10-09T02:42:30.108Z,7.50
2018-10-09T02:44:58.412Z,7.40
2018-10-09T02:47:26.712Z,7.40
2018-10-09T02:49:55.048Z,7.50
2018-10-09T02:52:23.522Z,7.50
2018-10-09T02:54:51.819Z,7.50
2018-10-09T02:57:20.128Z,7.50
2018-10-09T02:59:48.639Z,7.40
2018-10-09T03:02:16.993Z,7.40
2018-10-09T03:04:45.297Z,7.40
2018-10-09T03:07:13.616Z,7.30
2018-10-09T03:09:41.917Z,7.20
2018-10-09T03:12:10.248Z,7.10
2018-10-09T03:14:38.581Z,6.90
2018-10-09T03:17:07.251Z,6.90
2018-10-09T03:19:35.568Z,6.90
2018-10-09T03:22:04.505Z,7.00
2018-10-09T03:24:32.812Z,7.00
2018-10-09T03:27:01.128Z,7.10
2018-10-09T03:29:29.428Z,7.10
2018-10-09T03:31:57.752Z,7.10
2018-10-09T03:34:26.077Z,7.20
2018-10-09T03:36:54.409Z,7.20
2018-10-09T03:39:22.720Z,7.30
2018-10-09T03:41:51.060Z,7.50
2018-10-09T03:44:19.885Z,7.50
2018-10-09T03:46:48.218Z,7.50
2018-10-09T03:49:17.036Z,7.50
2018-10-09T03:51:45.472Z,7.60
2018-10-09T03:54:13.780Z,7.50
2018-10-09T03:56:42.119Z,7.50
2018-10-09T03:59:10.473Z,7.60
2018-10-09T04:01:39.384Z,7.60
2018-10-09T04:04:07.708Z,7.60
2018-10-09T04:06:36.016Z,7.60
2018-10-09T04:09:07.682Z,7.70
2018-10-09T04:11:35.937Z,7.70
2018-10-09T04:14:04.299Z,7.70
2018-10-09T04:16:32.594Z,7.70
2018-10-09T04:19:00.964Z,7.70
2018-10-09T04:21:29.271Z,7.70
2018-10-09T04:23:58.096Z,7.60
2018-10-09T04:26:26.424Z,7.60
2018-10-09T04:28:55.261Z,7.60
2018-10-09T04:31:23.580Z,7.60
2018-10-09T04:33:51.928Z,7.60
2018-10-09T04:36:20.244Z,7.60
2018-10-09T04:38:48.630Z,7.60
2018-10-09T04:41:17.103Z,7.70
2018-10-09T04:43:45.385Z,7.70
2018-10-09T04:46:13.740Z,7.60
2018-10-09T04:48:42.093Z,7.70
2018-10-09T04:51:10.396Z,7.70
2018-10-09T04:53:38.899Z,7.80
2018-10-09T04:56:07.552Z,7.80
2018-10-09T04:58:35.862Z,7.80
2018-10-09T05:01:04.182Z,7.80
2018-10-09T05:03:32.496Z,7.70
2018-10-09T05:06:00.836Z,7.60
2018-10-09T05:08:29.184Z,7.60
2018-10-09T05:10:57.540Z,7.50
2018-10-09T05:13:26.064Z,7.40
2018-10-09T05:15:54.649Z,7.10
2018-10-09T05:18:25.673Z,7.10
2018-10-09T05:20:56.385Z,7.10
2018-10-09T05:23:27.099Z,7.10
2018-10-09T05:25:55.537Z,7.20
2018-10-09T05:28:23.999Z,7.20
2018-10-09T05:30:52.636Z,7.20
2018-10-09T05:33:20.956Z,7.20
2018-10-09T05:35:49.264Z,7.20
2018-10-09T05:38:17.584Z,7.30
2018-10-09T05:40:46.046Z,7.40
2018-10-09T05:43:14.361Z,7.40
2018-10-09T05:45:42.688Z,7.40
2018-10-09T05:48:11.248Z,7.40
2018-10-09T05:50:40.349Z,7.20
2018-10-09T05:53:09.435Z,7.20
2018-10-09T05:55:37.905Z,7.10
2018-10-09T05:58:06.651Z,7.20
2018-10-09T06:00:34.877Z,7.20
2018-10-09T06:03:04.440Z,7.20
2018-10-09T06:05:32.760Z,7.20
2018-10-09T06:08:05.541Z,7.30
2018-10-09T06:10:33.832Z,7.20
2018-10-09T06:13:03.920Z,7.20
2018-10-09T06:15:32.303Z,7.20
2018-10-09T06:18:00.579Z,7.00
2018-10-09T06:20:28.955Z,6.90
2018-10-09T06:22:57.281Z,6.90
2018-10-09T06:25:25.626Z,7.00
2018-10-09T06:27:53.905Z,7.30
2018-10-09T06:30:23.364Z,7.50
2018-10-09T06:32:51.677Z,7.70
2018-10-09T06:35:20.017Z,7.60
2018-10-09T06:37:48.337Z,7.70
2018-10-09T06:40:16.810Z,7.80
2018-10-09T06:42:46.025Z,7.90
2018-10-09T06:45:14.700Z,8.00
2018-10-09T06:47:43.882Z,8.00
2018-10-09T06:50:12.202Z,8.00
2018-10-09T06:52:40.519Z,8.10
2018-10-09T06:55:08.822Z,8.30
2018-10-09T06:57:37.188Z,8.40
2018-10-09T07:00:05.581Z,8.50
2018-10-09T07:02:33.898Z,8.50
2018-10-09T07:05:04.565Z,8.60
2018-10-09T07:07:33.035Z,8.70
2018-10-09T07:10:02.238Z,8.90
2018-10-09T07:12:31.293Z,9.00
2018-10-09T07:14:59.600Z,9.00
2018-10-09T07:17:28.023Z,9.10
2018-10-09T07:19:56.386Z,9.20
2018-10-09T07:22:25.513Z,9.30
2018-10-09T07:24:54.390Z,9.40
2018-10-09T07:27:22.704Z,9.50
2018-10-09T07:30:01.371Z,9.50
2018-10-09T07:32:29.669Z,9.50
2018-10-09T07:34:58.041Z,9.50
2018-10-09T07:37:26.398Z,9.60
2018-10-09T07:39:55.368Z,9.70
2018-10-09T07:42:24.444Z,9.70
2018-10-09T07:44:52.747Z,9.80
2018-10-09T07:47:21.062Z,9.90
2018-10-09T07:49:49.957Z,10.00
2018-10-09T07:52:18.333Z,10.20
2018-10-09T07:54:46.688Z,10.40
2018-10-09T07:57:14.980Z,10.50
2018-10-09T07:59:43.305Z,10.50
2018-10-09T08:02:11.596Z,10.70
2018-10-09T08:04:39.967Z,10.80
2018-10-09T08:07:08.296Z,10.80
2018-10-09T08:09:36.611Z,10.90
2018-10-09T08:12:06.701Z,11.00
2018-10-09T08:14:35.052Z,11.10
2018-10-09T08:17:03.489Z,11.10
2018-10-09T08:19:31.850Z,11.20
2018-10-09T08:22:00.560Z,11.30
2018-10-09T08:24:29.132Z,11.40
2018-10-09T08:26:57.454Z,11.40
2018-10-09T08:29:25.848Z,11.50
2018-10-09T08:31:54.270Z,11.60
2018-10-09T08:34:22.624Z,11.60
2018-10-09T08:36:51.048Z,11.60
2018-10-09T08:39:19.374Z,11.60
2018-10-09T08:41:47.709Z,11.60
2018-10-09T08:44:16.038Z,11.70
2018-10-09T08:46:44.361Z,11.80
2018-10-09T08:49:12.679Z,11.90
2018-10-09T08:51:41.010Z,12.00
2018-10-09T08:54:09.361Z,12.20
2018-10-09T08:56:37.649Z,12.40
2018-10-09T08:59:05.974Z,12.60
2018-10-09T09:01:34.289Z,12.80
2018-10-09T09:04:02.614Z,13.00
2018-10-09T09:06:30.957Z,13.10
2018-10-09T09:08:59.295Z,13.30
2018-10-09T09:11:28.300Z,13.40
2018-10-09T09:13:56.668Z,13.50
2018-10-09T09:16:24.916Z,13.80
2018-10-09T09:18:53.404Z,14.00
2018-10-09T09:21:23.529Z,14.10
2018-10-09T09:23:51.833Z,14.30
2018-10-09T09:26:20.513Z,14.40
2018-10-09T09:28:48.941Z,14.50
2018-10-09T09:31:17.272Z,14.50
2018-10-09T09:33:45.586Z,14.60
2018-10-09T09:36:13.921Z,14.90
2018-10-09T09:38:42.225Z,15.00
2018-10-09T09:41:10.630Z,15.20
2018-10-09T09:43:38.929Z,15.50
2018-10-09T09:46:07.611Z,15.60
2018-10-09T09:48:35.894Z,16.00
2018-10-09T09:51:04.981Z,16.40
2018-10-09T09:53:33.355Z,16.40
2018-10-09T09:56:02.353Z,16.70
2018-10-09T09:58:30.803Z,16.90
2018-10-09T10:01:03.251Z,17.00
2018-10-09T10:03:31.665Z,17.30
2018-10-09T10:06:00.424Z,17.20
2018-10-09T10:08:28.742Z,17.40
2018-10-09T10:10:57.110Z,17.40
2018-10-09T10:13:25.453Z,17.60
2018-10-09T10:15:54.559Z,17.50
2018-10-09T10:18:23.337Z,17.80
2018-10-09T10:20:52.011Z,17.90
2018-10-09T10:23:20.589Z,18.00
2018-10-09T10:25:48.957Z,18.30
2018-10-09T10:28:17.484Z,18.60
2018-10-09T10:30:46.117Z,18.80
2018-10-09T10:33:14.665Z,19.30
2018-10-09T10:35:43.038Z,19.50
2018-10-09T10:38:11.376Z,19.90
2018-10-09T10:40:40.549Z,20.30
2018-10-09T10:43:08.930Z,20.60
2018-10-09T10:45:37.250Z,20.90
2018-10-09T10:48:05.738Z,21.00
2018-10-09T10:50:34.089Z,21.20
2018-10-09T10:53:02.433Z,21.30
2018-10-09T10:55:30.729Z,21.20
2018-10-09T10:57:59.040Z,21.00
2018-10-09T11:00:27.354Z,21.10
2018-10-09T11:02:55.665Z,20.80
2018-10-09T11:05:24.201Z,20.70
2018-10-09T11:07:52.722Z,20.80
2018-10-09T11:10:25.375Z,20.90
2018-10-09T11:12:54.165Z,21.40
2018-10-09T11:15:22.479Z,21.50
2018-10-09T11:17:50.841Z,21.60
2018-10-09T11:20:20.335Z,21.80
2018-10-09T11:22:49.108Z,22.20
2018-10-09T11:25:17.429Z,22.30
2018-10-09T11:27:45.737Z,22.60
2018-10-09T11:30:14.077Z,22.50
2018-10-09T11:32:42.414Z,22.50
2018-10-09T11:35:10.701Z,22.20
2018-10-09T11:37:39.014Z,21.80
2018-10-09T11:40:07.350Z,21.50
2018-10-09T11:42:35.687Z,21.60
2018-10-09T11:45:04.057Z,21.50
2018-10-09T11:47:32.404Z,21.90
2018-10-09T11:50:01.293Z,22.00
2018-10-09T11:52:29.608Z,22.30
2018-10-09T11:54:57.932Z,22.60
2018-10-09T11:57:26.672Z,22.70
2018-10-09T11:59:54.987Z,22.80
2018-10-09T12:02:23.306Z,23.30
2018-10-09T12:04:52.428Z,23.70
2018-10-09T12:07:20.853Z,23.90
2018-10-09T12:09:49.481Z,24.40
2018-10-09T12:12:17.972Z,24.60
2018-10-09T12:14:46.304Z,24.80
2018-10-09T12:17:14.643Z,24.90
2018-10-09T12:19:42.997Z,24.60
2018-10-09T12:22:11.343Z,23.80
2018-10-09T12:24:39.672Z,23.20
2018-10-09T12:27:08.270Z,22.90
2018-10-09T12:29:36.537Z,22.30
2018-10-09T12:32:04.877Z,22.30
2018-10-09T12:34:33.257Z,22.40
2018-10-09T12:37:01.613Z,23.00
2018-10-09T12:39:29.942Z,23.60
2018-10-09T12:41:58.219Z,23.80
2018-10-09T12:44:26.596Z,23.70
2018-10-09T12:46:55.046Z,24.50
2018-10-09T12:49:23.359Z,24.70
2018-10-09T12:51:51.652Z,25.50
2018-10-09T12:54:20.037Z,25.90
2018-10-09T12:56:48.359Z,26.10
2018-10-09T12:59:16.707Z,26.40
2018-10-09T13:01:45.054Z,26.20
2018-10-09T13:04:13.358Z,26.10
2018-10-09T13:06:41.701Z,26.10
2018-10-09T13:09:11.668Z,26.40
2018-10-09T13:11:40.007Z,26.20
2018-10-09T13:14:08.302Z,26.90
2018-10-09T13:16:37.941Z,27.20
2018-10-09T13:19:06.327Z,27.60
2018-10-09T13:21:34.991Z,27.50
2018-10-09T13:24:02.965Z,27.40
2018-10-09T13:26:31.969Z,27.00
2018-10-09T13:29:00.792Z,27.00
2018-10-09T13:31:29.123Z,27.00
2018-10-09T13:33:57.695Z,27.50
2018-10-09T13:36:25.998Z,27.80
2018-10-09T13:38:54.300Z,28.80
2018-10-09T13:41:22.622Z,27.70
2018-10-09T13:43:50.954Z,27.40
2018-10-09T13:46:19.249Z,28.00
2018-10-09T13:48:47.539Z,27.60
2018-10-09T13:51:15.873Z,27.40
2018-10-09T13:53:44.206Z,27.70
2018-10-09T13:56:12.577Z,27.80
2018-10-09T13:58:40.906Z,27.60
2018-10-09T14:01:09.472Z,27.60
2018-10-09T14:03:37.771Z,28.10
2018-10-09T14:06:06.097Z,27.50
2018-10-09T14:08:34.388Z,27.80
2018-10-09T14:11:02.720Z,28.10
2018-10-09T14:13:31.351Z,27.50
2018-10-09T14:15:59.661Z,28.50
2018-10-09T14:18:27.980Z,28.90
2018-10-09T14:20:56.301Z,29.20
2018-10-09T14:23:24.638Z,28.70
2018-10-09T14:25:53.733Z,29.10
2018-10-09T14:28:22.082Z,28.50
2018-10-09T14:30:50.403Z,28.80
2018-10-09T14:33:18.712Z,29.20
2018-10-09T14:35:47.038Z,28.50
2018-10-09T14:38:15.356Z,28.70
2018-10-09T14:40:43.689Z,28.40
2018-10-09T14:43:11.978Z,28.60
2018-10-09T14:45:40.279Z,28.70
2018-10-09T14:48:09.664Z,28.20
2018-10-09T14:50:38.852Z,27.70
2018-10-09T14:53:08.128Z,27.20
2018-10-09T14:55:36.881Z,27.00
2018-10-09T14:58:05.183Z,26.90
2018-10-09T15:00:33.505Z,26.80
2018-10-09T15:03:01.849Z,26.20
2018-10-09T15:05:30.250Z,25.90
2018-10-09T15:07:58.570Z,25.30
2018-10-09T15:10:26.878Z,25.20
2018-10-09T15:12:55.178Z,25.30
2018-10-09T15:15:23.512Z,25.40
2018-10-09T15:17:52.677Z,25.30
2018-10-09T15:20:20.981Z,25.10
2018-10-09T15:22:49.257Z,24.80
2018-10-09T15:25:17.629Z,24.60
2018-10-09T15:27:45.945Z,24.40
2018-10-09T15:30:14.637Z,23.90
2018-10-09T15:32:42.950Z,23.90
2018-10-09T15:35:11.295Z,23.60
2018-10-09T15:37:39.596Z,23.50
2018-10-09T15:40:07.999Z,23.50
2018-10-09T15:42:37.301Z,23.40
2018-10-09T15:45:05.981Z,22.90
2018-10-09T15:47:34.352Z,22.50
2018-10-09T15:50:03.668Z,22.10
2018-10-09T15:52:32.016Z,21.90
2018-10-09T15:55:00.338Z,22.00
2018-10-09T15:57:28.650Z,21.90
2018-10-09T15:59:56.956Z,21.60
2018-10-09T16:02:25.265Z,21.50
2018-10-09T16:04:53.602Z,21.50
2018-10-09T16:07:22.139Z,21.50
2018-10-09T16:09:50.939Z,21.40
2018-10-09T16:12:19.285Z,21.30
2018-10-09T16:14:47.617Z,21.20
2018-10-09T16:17:15.922Z,21.00
2018-10-09T16:19:44.243Z,20.90
2018-10-09T16:22:12.605Z,20.70
2018-10-09T16:24:40.988Z,20.50
2018-10-09T16:27:09.309Z,20.30
2018-10-09T16:29:37.636Z,20.20
2018-10-09T16:32:05.973Z,20.00
2018-10-09T16:34:34.273Z,19.90
2018-10-09T16:37:02.600Z,19.70
2018-10-09T16:39:30.924Z,19.70
2018-10-09T16:41:59.609Z,19.60
2018-10-09T16:44:27.946Z,19.40
2018-10-09T16:46:56.259Z,19.20
2018-10-09T16:49:25.445Z,19.00
2018-10-09T16:51:53.782Z,18.90
2018-10-09T16:54:22.647Z,18.80
2018-10-09T16:56:51.526Z,18.80
2018-10-09T16:59:19.847Z,18.70
2018-10-09T17:01:48.143Z,18.70
2018-10-09T17:04:16.510Z,18.50
2018-10-09T17:06:44.843Z,18.40
2018-10-09T17:09:13.166Z,18.30
2018-10-09T17:11:42.159Z,18.20
2018-10-09T17:14:11.135Z,18.20
2018-10-09T17:16:39.469Z,18.00
2018-10-09T17:19:07.877Z,18.00
2018-10-09T17:21:36.261Z,17.90
2018-10-09T17:24:05.616Z,17.90
2018-10-09T17:26:33.990Z,17.80
2018-10-09T17:29:02.802Z,17.80
2018-10-09T17:31:31.124Z,17.80
2018-10-09T17:33:59.478Z,17.70
2018-10-09T17:36:27.787Z,17.40
2018-10-09T17:38:56.102Z,17.30
2018-10-09T17:41:25.232Z,17.30
2018-10-09T17:43:53.553Z,17.10
2018-10-09T17:46:22.632Z,17.00
2018-10-09T17:48:50.873Z,17.00
2018-10-09T17:51:19.175Z,17.00
2018-10-09T17:53:47.576Z,16.90
2018-10-09T17:56:15.829Z,16.80
2018-10-09T17:58:44.196Z,16.70
2018-10-09T18:01:14.070Z,16.70
2018-10-09T18:03:43.231Z,16.70
2018-10-09T18:06:11.582Z,16.50
2018-10-09T18:08:39.964Z,16.50
2018-10-09T18:11:08.251Z,16.30
2018-10-09T18:13:36.677Z,16.30
2018-10-09T18:16:06.089Z,16.20
2018-10-09T18:18:34.998Z,16.10
2018-10-09T18:21:08.275Z,16.00
2018-10-09T18:23:41.457Z,15.90
2018-10-09T18:26:10.739Z,15.80
2018-10-09T18:28:39.413Z,15.70
2018-10-09T18:31:08.152Z,15.80
2018-10-09T18:33:36.850Z,15.80
2018-10-09T18:36:05.176Z,15.80
2018-10-09T18:38:47.579Z,15.90
2018-10-09T18:41:46.542Z,15.80
2018-10-09T18:47:15.329Z,15.60
2018-10-09T18:49:46.540Z,15.50
2018-10-09T18:52:33.076Z,15.50
2018-10-09T18:55:17.529Z,15.50
2018-10-09T18:57:51.106Z,15.40
2018-10-09T19:03:59.981Z,15.30
2018-10-09T19:09:43.445Z,15.20
2018-10-09T19:15:26.032Z,15.10
2018-10-09T19:17:58.009Z,15.00
2018-10-09T19:20:34.267Z,14.90
2018-10-09T19:23:14.484Z,14.90
2018-10-09T19:25:45.597Z,14.90
2018-10-09T19:28:16.808Z,14.80
2018-10-09T19:31:04.103Z,14.80
2018-10-09T19:33:35.936Z,14.70
2018-10-09T19:36:04.377Z,14.60
2018-10-09T19:38:33.197Z,14.60
2018-10-09T19:41:01.575Z,14.60
2018-10-09T19:43:30.493Z,14.50
2018-10-09T19:45:59.817Z,14.60
2018-10-09T19:48:28.850Z,14.60
2018-10-09T19:51:04.416Z,14.50
2018-10-09T19:53:33.820Z,14.50
2018-10-09T19:56:03.467Z,14.60
2018-10-09T19:58:40.931Z,14.40
2018-10-09T20:01:32.506Z,14.00
2018-10-09T20:04:02.103Z,13.60
2018-10-09T20:06:31.271Z,13.50
2018-10-09T20:09:00.600Z,13.50
2018-10-09T20:11:32.692Z,13.60
2018-10-09T20:14:05.036Z,13.50
2018-10-09T20:16:34.666Z,13.50
2018-10-09T20:19:03.460Z,13.40
2018-10-09T20:21:35.501Z,13.30
2018-10-09T20:24:07.019Z,13.30
2018-10-09T20:26:59.596Z,13.20
2018-10-09T20:29:32.493Z,13.20
2018-10-09T20:32:02.329Z,13.30
2018-10-09T20:34:32.463Z,13.30
2018-10-09T20:37:02.288Z,13.30
2018-10-09T20:39:33.732Z,13.30
2018-10-09T20:42:04.263Z,13.30
2018-10-09T20:44:34.698Z,13.10
2018-10-09T20:47:05.695Z,13.10
2018-10-09T20:49:37.451Z,13.00
2018-10-09T20:52:06.453Z,12.90
2018-10-09T20:54:35.004Z,13.00
2018-10-09T20:57:08.326Z,13.00
2018-10-09T20:59:53.917Z,13.00
2018-10-09T21:02:24.550Z,12.90
2018-10-09T21:05:33.344Z,12.80
2018-10-09T21:08:10.222Z,12.70
2018-10-09T21:10:58.603Z,12.60
2018-10-09T21:13:36.482Z,12.60
2018-10-09T21:16:10.638Z,12.40
2018-10-09T21:18:49.578Z,12.30
2018-10-09T21:21:20.956Z,12.20
2018-10-09T21:23:52.526Z,12.20
2018-10-09T21:26:22.304Z,12.10
2018-10-09T21:29:06.109Z,12.10
2018-10-09T21:31:35.772Z,12.10
2018-10-09T21:34:05.324Z,12.20
2018-10-09T21:36:33.703Z,12.20
2018-10-09T21:39:01.954Z,12.10
2018-10-09T21:41:30.317Z,12.00
2018-10-09T21:43:58.663Z,12.00
2018-10-09T21:46:26.986Z,12.00
2018-10-09T21:48:55.319Z,11.90
2018-10-09T21:51:23.677Z,12.00
2018-10-09T21:53:51.997Z,12.10
2018-10-09T21:56:20.334Z,12.20
2018-10-09T21:58:48.648Z,12.30
2018-10-09T22:01:16.977Z,12.30
2018-10-09T22:03:45.322Z,12.20
2018-10-09T22:06:13.685Z,12.00
2018-10-09T22:08:41.977Z,11.90
2018-10-09T22:11:10.333Z,11.90
2018-10-09T22:13:38.668Z,12.00
2018-10-09T22:16:06.988Z,12.10
2018-10-09T22:18:35.300Z,12.20
2018-10-09T22:21:03.632Z,12.10
2018-10-09T22:23:31.989Z,12.10
2018-10-09T22:26:00.292Z,12.10
2018-10-09T22:28:28.658Z,12.20
2018-10-09T22:30:56.952Z,12.20
2018-10-09T22:33:25.274Z,12.20
2018-10-09T22:35:55.092Z,12.20
2018-10-09T22:38:23.510Z,12.20
2018-10-09T22:40:51.804Z,12.10
2018-10-09T22:43:20.146Z,12.00
2018-10-09T22:45:48.560Z,12.00
2018-10-09T22:48:16.889Z,12.00
2018-10-09T22:50:45.204Z,11.70
2018-10-09T22:53:13.517Z,11.40
2018-10-09T22:55:41.869Z,11.20
2018-10-09T22:58:10.185Z,11.30
2018-10-09T23:00:38.576Z,11.50
2018-10-09T23:03:06.965Z,11.50
2018-10-09T23:05:35.325Z,11.60
2018-10-09T23:08:03.652Z,11.80
2018-10-09T23:10:32.069Z,11.80
2018-10-09T23:13:00.399Z,11.80
2018-10-09T23:15:28.711Z,11.90
2018-10-09T23:17:57.406Z,11.90
2018-10-09T23:20:26.328Z,11.90
2018-10-09T23:22:54.689Z,12.00
2018-10-09T23:25:23.037Z,12.00
2018-10-09T23:27:51.355Z,12.10
2018-10-09T23:30:20.190Z,12.10
2018-10-09T23:32:49.179Z,12.20
2018-10-09T23:35:17.489Z,12.10
2018-10-09T23:37:45.800Z,12.10
2018-10-09T23:40:14.102Z,12.10
2018-10-09T23:42:42.480Z,12.10
2018-10-09T23:45:10.825Z,12.00
2018-10-09T23:47:40.027Z,12.00
2018-10-09T23:50:08.389Z,12.00
2018-10-09T23:52:36.737Z,12.10
2018-10-09T23:55:05.832Z,12.10
2018-10-09T23:57:34.275Z,12.10
